createdAt,value
2023-05-15T00:02:13.170Z,12.80
2023-05-15T00:04:40.355Z,12.80
2023-05-15T00:07:07.307Z,12.80
2023-05-15T00:09:34.190Z,12.80
2023-05-15T00:12:01.111Z,12.80
2023-05-15T00:14:28.026Z,12.80
2023-05-15T00:16:55.071Z,12.80
2023-05-15T00:19:22.523Z,12.80
2023-05-15T00:21:49.374Z,12.80
2023-05-15T00:24:16.270Z,12.80
2023-05-15T00:26:43.511Z,12.80
2023-05-15T00:29:10.560Z,12.80
2023-05-15T00:31:37.469Z,12.80
2023-05-15T00:34:04.361Z,12.80
2023-05-15T00:36:31.371Z,12.80
2023-05-15T00:38:58.562Z,12.90
2023-05-15T00:41:28.794Z,12.90
2023-05-15T00:43:56.813Z,12.90
2023-05-15T00:46:26.463Z,12.90
2023-05-15T00:48:54.618Z,12.90
2023-05-15T00:51:21.455Z,12.90
2023-05-15T00:53:50.788Z,12.90
2023-05-15T00:56:18.233Z,12.90
2023-05-15T00:58:47.615Z,12.90
2023-05-15T01:01:16.766Z,12.90
2023-05-15T01:03:44.626Z,12.80
2023-05-15T01:06:11.829Z,12.90
2023-05-15T01:08:47.967Z,12.90
2023-05-15T01:11:16.390Z,12.90
2023-05-15T01:13:43.954Z,12.90
2023-05-15T01:16:11.329Z,12.80
2023-05-15T01:18:38.337Z,12.80
2023-05-15T01:21:23.174Z,12.80
2023-05-15T01:24:42.875Z,12.90
2023-05-15T01:27:47.416Z,12.80
2023-05-15T01:30:29.323Z,12.80
2023-05-15T01:33:04.117Z,12.90
2023-05-15T01:35:39.829Z,12.90
2023-05-15T01:38:21.687Z,12.90
2023-05-15T01:40:49.857Z,12.90
2023-05-15T01:43:22.054Z,12.90
2023-05-15T01:45:48.968Z,12.90
2023-05-15T01:48:18.219Z,12.90
2023-05-15T01:50:47.386Z,12.90
2023-05-15T01:53:16.576Z,12.90
2023-05-15T01:55:44.591Z,12.90
2023-05-15T01:58:12.013Z,12.90
2023-05-15T02:00:40.116Z,12.90
2023-05-15T02:03:07.620Z,12.80
2023-05-15T02:05:35.439Z,12.80
2023-05-15T02:08:04.528Z,12.80
2023-05-15T02:10:33.721Z,12.80
2023-05-15T02:13:01.522Z,12.80
2023-05-15T02:15:30.077Z,12.80
2023-05-15T02:17:57.103Z,12.80
2023-05-15T02:20:24.127Z,12.80
2023-05-15T02:22:51.008Z,12.80
2023-05-15T02:25:18.028Z,12.80
2023-05-15T02:28:00.171Z,12.80
2023-05-15T02:30:45.199Z,12.80
2023-05-15T02:33:42.824Z,12.90
2023-05-15T02:36:14.365Z,12.90
2023-05-15T02:38:54.433Z,12.90
2023-05-15T02:41:23.113Z,12.90
2023-05-15T02:43:52.261Z,12.90
2023-05-15T02:46:21.389Z,13.00
2023-05-15T02:48:48.917Z,12.90
2023-05-15T02:51:16.045Z,12.90
2023-05-15T02:53:43.437Z,13.00
2023-05-15T02:56:10.519Z,13.00
2023-05-15T02:58:39.231Z,13.00
2023-05-15T03:01:07.015Z,13.00
2023-05-15T03:03:34.134Z,13.00
2023-05-15T03:06:01.137Z,13.10
2023-05-15T03:08:28.060Z,13.00
2023-05-15T03:10:55.008Z,13.00
2023-05-15T03:13:21.943Z,13.00
2023-05-15T03:15:48.845Z,13.00
2023-05-15T03:18:18.485Z,13.00
2023-05-15T03:20:47.449Z,13.00
2023-05-15T03:23:14.332Z,13.00
2023-05-15T03:25:41.337Z,13.00
2023-05-15T03:28:08.221Z,13.00
2023-05-15T03:30:35.131Z,13.00
2023-05-15T03:33:04.092Z,13.00
2023-05-15T03:35:32.516Z,13.10
2023-05-15T03:37:59.431Z,13.00
2023-05-15T03:40:26.328Z,13.00
2023-05-15T03:42:53.707Z,13.10
2023-05-15T03:45:21.265Z,13.10
2023-05-15T03:47:48.652Z,13.00
2023-05-15T03:50:16.156Z,13.00
2023-05-15T03:52:43.172Z,13.10
2023-05-15T03:55:10.162Z,13.10
2023-05-15T03:57:37.071Z,13.10
2023-05-15T04:00:09.977Z,13.00
2023-05-15T04:02:37.786Z,13.10
2023-05-15T04:05:05.571Z,13.10
2023-05-15T04:07:33.818Z,13.10
2023-05-15T04:10:01.723Z,13.10
2023-05-15T04:12:35.639Z,13.10
2023-05-15T04:15:24.474Z,13.20
2023-05-15T04:17:53.235Z,13.20
2023-05-15T04:20:22.675Z,13.30
2023-05-15T04:22:50.197Z,13.30
2023-05-15T04:25:18.227Z,13.30
2023-05-15T04:27:45.394Z,13.30
2023-05-15T04:30:13.125Z,13.30
2023-05-15T04:32:40.891Z,13.30
2023-05-15T04:35:10.339Z,13.30
2023-05-15T04:37:37.992Z,13.30
2023-05-15T04:40:06.838Z,13.40
2023-05-15T04:42:34.230Z,13.50
2023-05-15T04:45:01.605Z,13.50
2023-05-15T04:47:28.772Z,13.50
2023-05-15T04:49:55.697Z,13.60
2023-05-15T04:52:22.623Z,13.60
2023-05-15T04:54:51.144Z,13.60
2023-05-15T04:57:18.001Z,13.70
2023-05-15T04:59:44.948Z,13.70
2023-05-15T05:02:11.794Z,13.60
2023-05-15T05:04:38.766Z,13.70
2023-05-15T05:07:06.011Z,13.80
2023-05-15T05:09:32.846Z,13.80
2023-05-15T05:12:00.633Z,13.80
2023-05-15T05:14:27.578Z,13.90
2023-05-15T05:16:54.447Z,13.90
2023-05-15T05:19:21.343Z,13.90
2023-05-15T05:21:48.276Z,13.90
2023-05-15T05:24:15.186Z,13.90
2023-05-15T05:26:44.671Z,13.90
2023-05-15T05:29:11.615Z,13.90
2023-05-15T05:31:38.612Z,13.90
2023-05-15T05:34:05.815Z,13.90
2023-05-15T05:36:32.947Z,13.90
2023-05-15T05:38:59.785Z,13.90
2023-05-15T05:41:26.729Z,13.90
2023-05-15T05:43:53.588Z,13.90
2023-05-15T05:46:21.190Z,13.90
2023-05-15T05:48:48.094Z,13.90
2023-05-15T05:51:15.505Z,13.90
2023-05-15T05:53:42.403Z,14.00
2023-05-15T05:56:09.356Z,14.00
2023-05-15T05:58:36.280Z,14.00
2023-05-15T06:01:03.598Z,14.10
2023-05-15T06:03:31.371Z,14.10
2023-05-15T06:05:58.256Z,14.10
2023-05-15T06:08:25.132Z,14.20
2023-05-15T06:10:51.994Z,14.20
2023-05-15T06:13:19.095Z,14.20
2023-05-15T06:15:46.504Z,14.20
2023-05-15T06:18:13.697Z,14.30
2023-05-15T06:20:42.802Z,14.30
2023-05-15T06:23:10.092Z,14.40
2023-05-15T06:25:37.040Z,14.40
2023-05-15T06:28:03.980Z,14.50
2023-05-15T06:30:30.964Z,14.50
2023-05-15T06:32:57.895Z,14.50
2023-05-15T06:35:24.908Z,14.50
2023-05-15T06:37:53.084Z,14.50
2023-05-15T06:40:21.669Z,14.60
2023-05-15T06:42:48.519Z,14.60
2023-05-15T06:45:15.563Z,14.60
2023-05-15T06:47:42.494Z,14.60
2023-05-15T06:50:10.039Z,14.60
2023-05-15T06:52:36.974Z,14.60
2023-05-15T06:55:03.981Z,14.50
2023-05-15T06:57:30.938Z,14.50
2023-05-15T06:59:57.779Z,14.50
2023-05-15T07:02:24.674Z,14.50
2023-05-15T07:04:51.817Z,14.60
2023-05-15T07:07:18.756Z,14.70
2023-05-15T07:09:48.457Z,14.90
2023-05-15T07:12:15.818Z,15.10
2023-05-15T07:14:42.752Z,15.40
2023-05-15T07:17:09.750Z,15.40
2023-05-15T07:19:36.719Z,15.30
2023-05-15T07:22:03.788Z,15.30
2023-05-15T07:24:31.445Z,15.40
2023-05-15T07:26:59.482Z,15.30
2023-05-15T07:29:26.868Z,15.50
2023-05-15T07:31:53.848Z,15.50
2023-05-15T07:34:20.895Z,15.70
2023-05-15T07:36:47.759Z,15.80
2023-05-15T07:39:14.653Z,15.90
2023-05-15T07:41:41.785Z,15.90
2023-05-15T07:44:08.701Z,15.90
2023-05-15T07:46:35.801Z,16.10
2023-05-15T07:49:02.781Z,16.20
2023-05-15T07:51:29.752Z,16.40
2023-05-15T07:53:56.608Z,16.60
2023-05-15T07:56:23.666Z,16.80
2023-05-15T07:58:50.598Z,16.90
2023-05-15T08:01:17.515Z,17.00
2023-05-15T08:03:44.502Z,17.20
2023-05-15T08:06:11.487Z,17.40
2023-05-15T08:08:38.376Z,17.60
2023-05-15T08:11:05.661Z,17.70
2023-05-15T08:13:32.510Z,17.60
2023-05-15T08:15:59.419Z,17.70
2023-05-15T08:18:26.389Z,17.80
2023-05-15T08:20:53.323Z,17.80
2023-05-15T08:23:20.329Z,18.00
2023-05-15T08:25:47.205Z,18.10
2023-05-15T08:28:15.088Z,18.00
2023-05-15T08:30:42.036Z,18.00
2023-05-15T08:33:08.965Z,18.00
2023-05-15T08:35:36.001Z,17.90
2023-05-15T08:38:03.325Z,18.10
2023-05-15T08:40:38.937Z,18.30
2023-05-15T08:43:15.690Z,18.40
2023-05-15T08:45:43.303Z,18.50
2023-05-15T08:48:14.050Z,18.50
2023-05-15T08:50:43.646Z,18.60
2023-05-15T08:53:14.236Z,18.60
2023-05-15T08:55:42.526Z,18.60
2023-05-15T08:58:13.015Z,18.60
2023-05-15T09:00:40.115Z,18.60
2023-05-15T09:03:07.328Z,18.50
2023-05-15T09:05:35.390Z,18.40
2023-05-15T09:08:06.329Z,18.40
2023-05-15T09:10:34.174Z,18.30
2023-05-15T09:13:02.611Z,18.50
2023-05-15T09:15:30.878Z,18.60
2023-05-15T09:17:58.910Z,18.80
2023-05-15T09:20:34.144Z,18.80
2023-05-15T09:23:03.434Z,18.90
2023-05-15T09:25:41.063Z,19.00
2023-05-15T09:28:10.781Z,19.10
2023-05-15T09:30:46.781Z,19.20
2023-05-15T09:33:16.848Z,19.40
2023-05-15T09:35:45.374Z,19.90
2023-05-15T09:38:13.131Z,20.40
2023-05-15T09:40:43.226Z,20.80
2023-05-15T09:43:12.193Z,21.00
2023-05-15T09:45:39.190Z,20.90
2023-05-15T09:48:08.033Z,20.50
2023-05-15T09:50:36.873Z,20.40
2023-05-15T09:53:04.950Z,20.50
2023-05-15T09:55:33.653Z,20.80
2023-05-15T09:58:11.281Z,20.80
2023-05-15T10:00:47.856Z,20.70
2023-05-15T10:03:17.891Z,20.80
2023-05-15T10:05:44.996Z,20.60
2023-05-15T10:08:12.786Z,20.50
2023-05-15T10:10:39.859Z,20.50
2023-05-15T10:13:08.505Z,20.50
2023-05-15T10:15:37.347Z,20.40
2023-05-15T10:18:05.062Z,20.50
2023-05-15T10:20:35.577Z,20.60
2023-05-15T10:23:04.994Z,20.60
2023-05-15T10:25:59.495Z,20.40
2023-05-15T10:28:27.112Z,20.10
2023-05-15T10:30:56.103Z,20.10
2023-05-15T10:33:23.934Z,20.20
2023-05-15T10:35:52.237Z,20.30
2023-05-15T10:38:20.842Z,20.20
2023-05-15T10:40:48.240Z,20.20
2023-05-15T10:43:15.794Z,20.30
2023-05-15T10:45:43.499Z,20.20
2023-05-15T10:48:12.446Z,20.20
2023-05-15T10:50:39.820Z,20.10
2023-05-15T10:53:06.993Z,20.00
2023-05-15T10:55:33.908Z,19.80
2023-05-15T10:58:00.928Z,19.60
2023-05-15T11:00:31.260Z,19.60
2023-05-15T11:02:58.937Z,19.50
2023-05-15T11:05:26.558Z,19.40
2023-05-15T11:08:15.321Z,19.30
2023-05-15T11:10:42.336Z,19.10
2023-05-15T11:13:09.271Z,19.00
2023-05-15T11:15:47.235Z,18.90
2023-05-15T11:18:14.881Z,18.80
2023-05-15T11:20:54.743Z,18.80
2023-05-15T11:23:22.580Z,18.70
2023-05-15T11:26:01.611Z,18.80
2023-05-15T11:28:30.693Z,18.80
2023-05-15T11:31:06.861Z,18.80
2023-05-15T11:33:33.958Z,18.80
2023-05-15T11:36:04.824Z,18.80
2023-05-15T11:38:39.089Z,18.90
2023-05-15T11:41:19.308Z,19.00
2023-05-15T11:43:46.781Z,19.10
2023-05-15T11:46:14.657Z,19.40
2023-05-15T11:48:49.912Z,19.80
2023-05-15T11:51:18.822Z,19.90
2023-05-15T11:53:46.388Z,20.10
2023-05-15T11:56:24.507Z,20.30
2023-05-15T11:58:52.916Z,20.20
2023-05-15T12:01:19.826Z,20.10
2023-05-15T12:03:51.328Z,20.10
2023-05-15T12:06:18.734Z,20.00
2023-05-15T12:08:52.542Z,20.10
2023-05-15T12:11:23.571Z,20.10
2023-05-15T12:13:55.117Z,20.00
2023-05-15T12:16:28.838Z,20.10
2023-05-15T12:18:59.861Z,20.00
2023-05-15T12:21:27.598Z,20.00
2023-05-15T12:24:07.218Z,19.90
2023-05-15T12:26:36.185Z,20.10
2023-05-15T12:29:04.091Z,20.20
2023-05-15T12:31:31.611Z,20.20
2023-05-15T12:33:58.535Z,20.20
2023-05-15T12:36:29.815Z,20.20
2023-05-15T12:38:57.996Z,20.10
2023-05-15T12:41:31.516Z,20.20
2023-05-15T12:43:58.657Z,20.20
2023-05-15T12:46:29.535Z,20.30
2023-05-15T12:48:59.443Z,20.40
2023-05-15T12:51:26.662Z,20.50
2023-05-15T12:53:54.335Z,20.40
2023-05-15T12:56:21.530Z,20.20
2023-05-15T12:58:48.710Z,20.00
2023-05-15T13:01:16.766Z,19.90
2023-05-15T13:03:44.522Z,19.80
2023-05-15T13:06:11.701Z,19.80
2023-05-15T13:08:42.237Z,19.80
2023-05-15T13:11:14.164Z,19.80
2023-05-15T13:13:46.875Z,19.90
2023-05-15T13:16:26.235Z,20.00
2023-05-15T13:18:53.985Z,20.00
2023-05-15T13:21:21.178Z,20.00
2023-05-15T13:23:48.305Z,19.90
2023-05-15T13:26:15.308Z,19.90
2023-05-15T13:28:42.189Z,19.80
2023-05-15T13:31:09.192Z,19.70
2023-05-15T13:33:36.135Z,19.60
2023-05-15T13:36:03.161Z,19.50
2023-05-15T13:38:30.058Z,19.50
2023-05-15T13:40:57.104Z,19.60
2023-05-15T13:43:25.836Z,19.50
2023-05-15T13:45:53.449Z,19.40
2023-05-15T13:48:20.354Z,19.40
2023-05-15T13:50:47.408Z,19.50
2023-05-15T13:53:17.021Z,19.50
2023-05-15T13:55:45.901Z,19.60
2023-05-15T13:58:13.613Z,19.60
2023-05-15T14:00:43.492Z,19.60
2023-05-15T14:03:12.575Z,19.50
2023-05-15T14:05:41.111Z,19.50
2023-05-15T14:08:08.019Z,19.50
2023-05-15T14:10:36.956Z,19.50
2023-05-15T14:13:03.827Z,19.40
2023-05-15T14:15:30.754Z,19.40
2023-05-15T14:17:57.576Z,19.40
2023-05-15T14:20:24.667Z,19.30
2023-05-15T14:22:51.732Z,19.20
2023-05-15T14:25:18.683Z,19.20
2023-05-15T14:27:45.935Z,19.10
2023-05-15T14:30:14.009Z,19.00
2023-05-15T14:32:41.555Z,18.80
2023-05-15T14:35:08.550Z,18.70
2023-05-15T14:37:36.315Z,18.70
2023-05-15T14:40:05.019Z,18.60
2023-05-15T14:42:32.170Z,18.60
2023-05-15T14:44:59.092Z,18.60
2023-05-15T14:47:28.460Z,18.60
2023-05-15T14:49:55.719Z,18.50
2023-05-15T14:52:22.838Z,18.50
2023-05-15T14:55:00.756Z,18.50
2023-05-15T14:57:35.226Z,18.60
2023-05-15T15:00:02.296Z,18.60
2023-05-15T15:02:29.274Z,18.60
2023-05-15T15:04:56.323Z,18.60
2023-05-15T15:07:27.454Z,18.60
2023-05-15T15:09:54.503Z,18.50
2023-05-15T15:12:21.343Z,18.60
2023-05-15T15:14:48.255Z,18.60
2023-05-15T15:17:15.113Z,18.60
2023-05-15T15:19:41.974Z,18.60
2023-05-15T15:22:08.850Z,18.60
2023-05-15T15:24:35.704Z,18.60
2023-05-15T15:27:02.568Z,18.60
2023-05-15T15:29:29.477Z,18.60
2023-05-15T15:31:56.360Z,18.60
2023-05-15T15:34:23.219Z,18.60
2023-05-15T15:36:50.140Z,18.50
2023-05-15T15:39:17.034Z,18.50
2023-05-15T15:41:43.976Z,18.50
2023-05-15T15:44:10.816Z,18.50
2023-05-15T15:46:37.767Z,18.50
2023-05-15T15:49:06.631Z,18.40
2023-05-15T15:51:33.853Z,18.40
2023-05-15T15:54:00.766Z,18.40
2023-05-15T15:56:27.633Z,18.40
2023-05-15T15:58:54.519Z,18.40
2023-05-15T16:01:22.293Z,18.50
2023-05-15T16:03:49.493Z,18.50
2023-05-15T16:06:16.712Z,18.50
2023-05-15T16:08:43.610Z,18.40
2023-05-15T16:11:10.514Z,18.40
2023-05-15T16:13:38.651Z,18.40
2023-05-15T16:16:06.554Z,18.40
2023-05-15T16:18:33.499Z,18.40
2023-05-15T16:21:00.424Z,18.40
2023-05-15T16:23:27.257Z,18.40
2023-05-15T16:25:54.173Z,18.30
2023-05-15T16:28:21.302Z,18.30
2023-05-15T16:30:51.021Z,18.30
2023-05-15T16:33:18.894Z,18.30
2023-05-15T16:35:47.377Z,18.20
2023-05-15T16:38:14.773Z,18.20
2023-05-15T16:40:41.797Z,18.20
2023-05-15T16:43:09.157Z,18.10
2023-05-15T16:45:36.045Z,18.10
2023-05-15T16:48:03.112Z,18.10
2023-05-15T16:50:31.667Z,18.10
2023-05-15T16:52:59.067Z,18.00
2023-05-15T16:55:26.181Z,18.00
2023-05-15T16:57:53.036Z,18.00
2023-05-15T17:00:21.934Z,17.90
2023-05-15T17:02:49.645Z,17.90
2023-05-15T17:05:16.817Z,17.90
2023-05-15T17:07:44.905Z,17.80
2023-05-15T17:10:12.979Z,17.80
2023-05-15T17:12:40.248Z,17.70
2023-05-15T17:15:07.751Z,17.70
2023-05-15T17:17:34.786Z,17.70
2023-05-15T17:20:02.980Z,17.70
2023-05-15T17:22:30.583Z,17.70
2023-05-15T17:24:57.566Z,17.60
2023-05-15T17:27:24.636Z,17.60
2023-05-15T17:29:51.569Z,17.50
2023-05-15T17:32:19.409Z,17.50
2023-05-15T17:34:46.572Z,17.50
2023-05-15T17:37:13.893Z,17.40
2023-05-15T17:39:41.054Z,17.40
2023-05-15T17:42:08.035Z,17.40
2023-05-15T17:44:34.977Z,17.30
2023-05-15T17:47:01.887Z,17.20
2023-05-15T17:49:28.916Z,17.20
2023-05-15T17:51:56.089Z,17.10
2023-05-15T17:54:22.962Z,17.10
2023-05-15T17:56:49.853Z,17.10
2023-05-15T17:59:16.779Z,17.10
2023-05-15T18:01:43.688Z,17.00
2023-05-15T18:04:10.777Z,17.00
2023-05-15T18:06:38.150Z,16.90
2023-05-15T18:09:05.287Z,16.90
2023-05-15T18:11:32.387Z,16.90
2023-05-15T18:13:59.608Z,16.80
2023-05-15T18:16:26.848Z,16.70
2023-05-15T18:18:54.236Z,16.60
2023-05-15T18:21:21.266Z,16.60
2023-05-15T18:23:48.267Z,16.50
2023-05-15T18:26:15.290Z,16.50
2023-05-15T18:28:42.191Z,16.40
2023-05-15T18:31:09.469Z,16.40
2023-05-15T18:33:36.481Z,16.40
2023-05-15T18:36:05.968Z,16.30
2023-05-15T18:38:34.341Z,16.30
2023-05-15T18:41:01.219Z,16.20
2023-05-15T18:43:28.682Z,16.20
2023-05-15T18:45:55.734Z,16.10
2023-05-15T18:48:23.087Z,16.10
2023-05-15T18:50:53.193Z,16.00
2023-05-15T18:53:20.140Z,16.00
2023-05-15T18:55:47.389Z,15.90
2023-05-15T18:58:14.414Z,15.90
2023-05-15T19:00:41.577Z,15.90
2023-05-15T19:03:11.081Z,15.80
2023-05-15T19:05:38.147Z,15.70
2023-05-15T19:08:05.085Z,15.70
2023-05-15T19:10:31.951Z,15.60
2023-05-15T19:12:59.024Z,15.60
2023-05-15T19:15:26.032Z,15.60
2023-05-15T19:17:53.084Z,15.60
2023-05-15T19:20:20.620Z,15.60
2023-05-15T19:22:47.529Z,15.60
2023-05-15T19:25:14.744Z,15.50
2023-05-15T19:27:41.758Z,15.50
2023-05-15T19:30:10.102Z,15.50
2023-05-15T19:32:37.685Z,15.40
2023-05-15T19:35:05.625Z,15.40
2023-05-15T19:37:32.742Z,15.40
2023-05-15T19:39:59.957Z,15.40
2023-05-15T19:42:26.996Z,15.40
2023-05-15T19:44:53.860Z,15.30
2023-05-15T19:47:20.946Z,15.30
2023-05-15T19:49:47.889Z,15.30
2023-05-15T19:52:16.332Z,15.30
2023-05-15T19:54:44.385Z,15.30
2023-05-15T19:57:11.356Z,15.20
2023-05-15T19:59:38.408Z,15.20
2023-05-15T20:02:09.231Z,15.20
2023-05-15T20:04:37.382Z,15.20
2023-05-15T20:07:05.453Z,15.30
2023-05-15T20:09:32.402Z,15.20
2023-05-15T20:11:59.331Z,15.20
2023-05-15T20:14:26.174Z,15.20
2023-05-15T20:16:53.106Z,15.20
2023-05-15T20:19:22.144Z,15.20
2023-05-15T20:21:49.842Z,15.10
2023-05-15T20:24:17.942Z,15.20
2023-05-15T20:26:45.372Z,15.20
2023-05-15T20:29:12.316Z,15.20
2023-05-15T20:31:40.462Z,15.10
2023-05-15T20:34:08.462Z,15.10
2023-05-15T20:36:38.929Z,15.10
2023-05-15T20:39:07.509Z,15.10
2023-05-15T20:41:34.900Z,15.10
2023-05-15T20:44:01.950Z,15.00
2023-05-15T20:46:30.228Z,15.00
2023-05-15T20:48:57.975Z,15.00
2023-05-15T20:51:25.150Z,15.00
2023-05-15T20:53:52.024Z,15.00
2023-05-15T20:56:19.047Z,15.00
2023-05-15T20:58:47.016Z,14.90
2023-05-15T21:01:13.934Z,14.90
2023-05-15T21:03:41.074Z,14.90
2023-05-15T21:06:08.860Z,14.90
2023-05-15T21:08:35.994Z,14.90
2023-05-15T21:11:05.086Z,14.90
2023-05-15T21:13:31.937Z,14.90
2023-05-15T21:15:58.804Z,14.80
2023-05-15T21:18:25.703Z,14.90
2023-05-15T21:20:52.978Z,14.90
2023-05-15T21:23:21.144Z,14.90
2023-05-15T21:25:48.119Z,14.80
2023-05-15T21:28:15.085Z,14.80
2023-05-15T21:30:42.063Z,14.80
2023-05-15T21:33:09.053Z,14.80
2023-05-15T21:35:35.926Z,14.80
2023-05-15T21:38:02.789Z,14.80
2023-05-15T21:40:29.650Z,14.80
2023-05-15T21:42:56.534Z,14.80
2023-05-15T21:45:23.402Z,14.80
2023-05-15T21:47:50.434Z,14.70
2023-05-15T21:50:17.504Z,14.80
2023-05-15T21:52:44.410Z,14.80
2023-05-15T21:55:11.518Z,14.80
2023-05-15T21:57:38.876Z,14.80
2023-05-15T22:00:07.565Z,14.90
2023-05-15T22:02:34.755Z,14.90
2023-05-15T22:05:02.036Z,14.80
2023-05-15T22:07:28.911Z,14.90
2023-05-15T22:09:56.743Z,14.90
2023-05-15T22:12:23.632Z,14.90
2023-05-15T22:14:58.302Z,14.90
2023-05-15T22:17:27.385Z,14.90
2023-05-15T22:19:54.633Z,14.90
2023-05-15T22:22:21.585Z,14.90
2023-05-15T22:24:48.464Z,14.90
2023-05-15T22:27:16.834Z,14.90
2023-05-15T22:29:44.108Z,14.90
2023-05-15T22:32:11.017Z,14.90
2023-05-15T22:34:37.882Z,15.00
2023-05-15T22:37:05.079Z,15.00
2023-05-15T22:39:33.191Z,15.00
2023-05-15T22:42:00.095Z,15.00
2023-05-15T22:44:27.658Z,15.00
2023-05-15T22:46:54.517Z,15.00
2023-05-15T22:49:25.440Z,15.00
2023-05-15T22:51:54.261Z,15.00
2023-05-15T22:54:24.001Z,15.00
2023-05-15T22:56:52.091Z,15.00
2023-05-15T22:59:19.827Z,14.90
2023-05-15T23:01:47.301Z,14.90
2023-05-15T23:04:14.580Z,14.90
2023-05-15T23:06:45.409Z,14.90
2023-05-15T23:09:12.478Z,14.90
2023-05-15T23:11:41.234Z,14.90
2023-05-15T23:14:08.477Z,14.90
2023-05-15T23:16:36.040Z,14.80
2023-05-15T23:19:03.154Z,14.80
2023-05-15T23:21:30.206Z,14.80
2023-05-15T23:23:57.043Z,14.80
2023-05-15T23:26:24.026Z,14.80
2023-05-15T23:28:53.562Z,14.80
2023-05-15T23:31:20.617Z,14.80
2023-05-15T23:33:47.676Z,14.80
2023-05-15T23:36:14.572Z,14.80
2023-05-15T23:38:43.572Z,14.80
2023-05-15T23:41:10.499Z,14.80
2023-05-15T23:43:37.348Z,14.80
2023-05-15T23:46:04.370Z,14.70
2023-05-15T23:48:33.650Z,14.70
2023-05-15T23:51:00.751Z,14.70
2023-05-15T23:53:27.643Z,14.70
2023-05-15T23:55:54.540Z,14.70
2023-05-15T23:58:21.617Z,14.70
